createdAt,value
2019-06-04T00:05:44.991Z,4.85
2019-06-04T00:15:46.946Z,5.10
2019-06-04T00:25:49.098Z,5.95
2019-06-04T00:35:51.211Z,7.00
2019-06-04T00:45:53.251Z,5.55
2019-06-04T00:55:56.039Z,6.65
2019-06-04T01:06:00.602Z,6.72
2019-06-04T01:16:06.677Z,6.53
2019-06-04T01:26:09.731Z,6.28
2019-06-04T01:36:12.144Z,6.42
2019-06-04T01:46:14.309Z,7.08
2019-06-04T01:56:16.266Z,5.97
2019-06-04T02:06:18.346Z,5.65
2019-06-04T02:16:25.580Z,5.45
2019-06-04T02:26:24.166Z,6.85
2019-06-04T02:36:26.234Z,6.12
2019-06-04T02:46:29.019Z,6.58
2019-06-04T02:56:32.674Z,7.05
2019-06-04T03:06:35.036Z,7.22
2019-06-04T03:16:37.156Z,7.03
2019-06-04T03:26:39.121Z,7.15
2019-06-04T03:46:42.614Z,9.20
2019-06-04T03:56:44.578Z,8.33
2019-06-04T04:16:47.983Z,9.55
2019-06-04T04:36:51.509Z,10.32
2019-06-04T04:46:53.475Z,9.35
2019-06-04T05:06:58.404Z,9.45
2019-06-04T05:17:02.376Z,10.08
2019-06-04T05:27:04.423Z,10.82
2019-06-04T05:37:06.547Z,10.58
2019-06-04T05:47:08.615Z,11.43
2019-06-04T05:57:11.677Z,12.93
2019-06-04T06:07:13.802Z,11.55
2019-06-04T06:17:15.710Z,21.48
2019-06-04T06:27:17.731Z,31.42
2019-06-04T06:37:19.758Z,17.77
2019-06-04T06:47:21.783Z,19.05
2019-06-04T06:57:23.781Z,20.17
2019-06-04T07:07:25.733Z,20.05
2019-06-04T07:17:29.277Z,23.87
2019-06-04T07:27:31.908Z,27.60
2019-06-04T07:37:34.800Z,26.82
2019-06-04T07:47:37.679Z,27.22
2019-06-04T07:57:41.047Z,32.20
2019-06-04T08:07:43.772Z,24.32
2019-06-04T08:17:45.750Z,17.17
2019-06-04T08:27:47.787Z,13.15
2019-06-04T08:37:49.740Z,10.53
2019-06-04T08:47:51.871Z,7.65
2019-06-04T08:57:54.058Z,8.68
2019-06-04T09:07:56.483Z,6.67
2019-06-04T09:17:58.523Z,5.62
2019-06-04T09:28:00.543Z,5.55
2019-06-04T09:38:09.603Z,6.22
2019-06-04T09:48:06.967Z,7.10
2019-06-04T10:08:13.131Z,3.20
2019-06-04T10:18:15.206Z,3.22
2019-06-04T10:28:17.287Z,3.72
2019-06-04T10:38:27.866Z,2.85
2019-06-04T10:48:23.184Z,4.33
2019-06-04T10:58:25.176Z,4.62
2019-06-04T11:08:45.903Z,3.58
2019-06-04T11:18:31.205Z,3.37
2019-06-04T11:28:33.124Z,3.90
2019-06-04T11:38:35.297Z,4.20
2019-06-04T11:48:37.394Z,2.42
2019-06-04T11:58:44.122Z,2.58
2019-06-04T12:08:43.747Z,4.30
2019-06-04T12:18:45.731Z,2.15
2019-06-04T12:28:47.788Z,2.55
2019-06-04T12:38:49.851Z,2.83
2019-06-04T12:48:51.875Z,2.83
2019-06-04T12:58:55.156Z,2.60
2019-06-04T13:08:58.436Z,3.62
2019-06-04T13:19:02.246Z,2.10
2019-06-04T13:29:05.622Z,2.65
2019-06-04T13:39:25.739Z,2.80
2019-06-04T13:49:29.445Z,2.95
2019-06-04T13:59:15.533Z,2.58
2019-06-04T14:09:17.582Z,2.87
2019-06-04T14:19:19.514Z,2.67
2019-06-04T14:29:21.584Z,2.20
2019-06-04T14:39:26.663Z,2.22
2019-06-04T14:49:27.411Z,2.20
2019-06-04T14:59:35.897Z,3.37
2019-06-04T15:09:33.277Z,2.00
2019-06-04T15:19:35.220Z,3.00
2019-06-04T15:29:37.259Z,2.17
2019-06-04T15:39:39.220Z,2.22
2019-06-04T15:49:41.268Z,2.62
2019-06-04T15:59:43.251Z,3.27
2019-06-04T16:09:45.321Z,5.22
2019-06-04T16:19:47.377Z,3.02
2019-06-04T16:29:49.417Z,3.12
2019-06-04T16:39:51.547Z,2.85
2019-06-04T16:49:57.604Z,2.20
2019-06-04T16:59:57.490Z,2.67
2019-06-04T17:09:59.554Z,2.33
2019-06-04T17:20:01.981Z,2.87
2019-06-04T17:30:04.963Z,2.30
2019-06-04T17:40:07.059Z,5.40
2019-06-04T17:50:09.111Z,12.55
2019-06-04T18:00:11.712Z,3.83
2019-06-04T18:10:13.794Z,5.17
2019-06-04T18:20:15.879Z,6.20
2019-06-04T18:30:18.080Z,4.85
2019-06-04T18:40:20.877Z,3.90
2019-06-04T18:50:23.142Z,3.33
2019-06-04T19:00:25.172Z,3.85
2019-06-04T19:10:27.202Z,2.25
2019-06-04T19:20:29.201Z,6.25
2019-06-04T19:30:31.280Z,29.37
2019-06-04T19:40:34.498Z,10.65
2019-06-04T19:50:38.601Z,23.42
2019-06-04T20:00:42.300Z,8.90
2019-06-04T20:10:51.741Z,4.08
2019-06-04T20:20:48.715Z,30.40
2019-06-04T20:30:50.806Z,24.98
2019-06-04T20:40:52.824Z,49.38
2019-06-04T20:50:54.835Z,83.17
2019-06-04T21:00:56.807Z,27.98
2019-06-04T21:10:58.827Z,30.92
2019-06-04T21:21:00.861Z,10.45
2019-06-04T21:31:02.944Z,7.05
2019-06-04T21:41:04.922Z,8.23
2019-06-04T21:51:06.938Z,3.92
2019-06-04T22:01:08.936Z,5.75
2019-06-04T22:11:10.977Z,10.18
2019-06-04T22:21:12.982Z,5.92
2019-06-04T22:31:15.024Z,5.70
2019-06-04T22:41:17.072Z,5.78
2019-06-04T22:51:19.087Z,23.35
2019-06-04T23:01:21.095Z,6.80
2019-06-04T23:11:23.164Z,4.28
2019-06-04T23:21:25.211Z,4.12
2019-06-04T23:31:27.315Z,4.70
2019-06-04T23:41:29.291Z,4.12
2019-06-04T23:51:31.324Z,4.05
